sensor_id;sensor_type;location;lat;lon;timestamp;temperature;humidity
66119;DHT22;52912;48.564;9.302;2023-02-11T00:00:24;-2.44;83.79
66119;DHT22;52912;48.564;9.302;2023-02-11T00:02:49;-2.50;84.11
66119;DHT22;52912;48.564;9.302;2023-02-11T00:05:15;-2.43;83.99
66119;DHT22;52912;48.564;9.302;2023-02-11T00:07:40;-2.42;83.22
66119;DHT22;52912;48.564;9.302;2023-02-11T00:10:06;-2.46;83.20
66119;DHT22;52912;48.564;9.302;2023-02-11T00:12:34;-2.62;84.04
66119;DHT22;52912;48.564;9.302;2023-02-11T00:15:00;-2.65;84.56
66119;DHT22;52912;48.564;9.302;2023-02-11T00:17:25;-2.62;84.11
66119;DHT22;52912;48.564;9.302;2023-02-11T00:19:51;-2.70;84.31
66119;DHT22;52912;48.564;9.302;2023-02-11T00:22:17;-2.75;84.87
66119;DHT22;52912;48.564;9.302;2023-02-11T00:24:43;-2.77;84.75
66119;DHT22;52912;48.564;9.302;2023-02-11T00:27:08;-2.77;84.91
66119;DHT22;52912;48.564;9.302;2023-02-11T00:29:35;-2.84;85.30
66119;DHT22;52912;48.564;9.302;2023-02-11T00:32:00;-2.79;85.20
66119;DHT22;52912;48.564;9.302;2023-02-11T00:34:26;-2.71;84.67
66119;DHT22;52912;48.564;9.302;2023-02-11T00:36:51;-2.88;85.21
66119;DHT22;52912;48.564;9.302;2023-02-11T00:39:17;-2.88;85.17
66119;DHT22;52912;48.564;9.302;2023-02-11T00:41:42;-2.89;85.63
66119;DHT22;52912;48.564;9.302;2023-02-11T00:44:08;-2.82;85.84
66119;DHT22;52912;48.564;9.302;2023-02-11T00:46:34;-2.75;85.25
66119;DHT22;52912;48.564;9.302;2023-02-11T00:49:00;-2.74;85.40
66119;DHT22;52912;48.564;9.302;2023-02-11T00:51:27;-2.82;85.06
66119;DHT22;52912;48.564;9.302;2023-02-11T00:53:53;-2.77;85.06
66119;DHT22;52912;48.564;9.302;2023-02-11T00:56:18;-2.84;85.12
66119;DHT22;52912;48.564;9.302;2023-02-11T00:58:44;-2.79;84.78
66119;DHT22;52912;48.564;9.302;2023-02-11T01:01:09;-2.79;84.89
66119;DHT22;52912;48.564;9.302;2023-02-11T01:03:36;-2.85;85.32
66119;DHT22;52912;48.564;9.302;2023-02-11T01:06:02;-2.85;85.11
66119;DHT22;52912;48.564;9.302;2023-02-11T01:08:28;-2.84;84.93
66119;DHT22;52912;48.564;9.302;2023-02-11T01:10:55;-2.81;85.32
66119;DHT22;52912;48.564;9.302;2023-02-11T01:13:21;-2.85;85.27
66119;DHT22;52912;48.564;9.302;2023-02-11T01:15:46;-2.84;84.76
66119;DHT22;52912;48.564;9.302;2023-02-11T01:18:12;-2.87;84.85
66119;DHT22;52912;48.564;9.302;2023-02-11T01:20:38;-2.96;85.22
66119;DHT22;52912;48.564;9.302;2023-02-11T01:23:04;-2.91;85.44
66119;DHT22;52912;48.564;9.302;2023-02-11T01:25:29;-2.98;85.45
66119;DHT22;52912;48.564;9.302;2023-02-11T01:27:55;-2.92;85.32
66119;DHT22;52912;48.564;9.302;2023-02-11T01:30:20;-2.89;85.03
66119;DHT22;52912;48.564;9.302;2023-02-11T01:32:46;-2.87;85.19
66119;DHT22;52912;48.564;9.302;2023-02-11T01:35:11;-2.79;84.74
66119;DHT22;52912;48.564;9.302;2023-02-11T01:37:38;-2.95;85.22
66119;DHT22;52912;48.564;9.302;2023-02-11T01:40:06;-2.95;85.33
66119;DHT22;52912;48.564;9.302;2023-02-11T01:42:35;-3.00;85.43
66119;DHT22;52912;48.564;9.302;2023-02-11T01:48:05;-3.02;85.84
66119;DHT22;52912;48.564;9.302;2023-02-11T01:50:30;-3.05;86.03
66119;DHT22;52912;48.564;9.302;2023-02-11T01:52:57;-2.96;85.85
66119;DHT22;52912;48.564;9.302;2023-02-11T01:55:23;-2.89;86.06
66119;DHT22;52912;48.564;9.302;2023-02-11T01:57:51;-2.75;85.85
66119;DHT22;52912;48.564;9.302;2023-02-11T02:00:18;-2.70;85.05
66119;DHT22;52912;48.564;9.302;2023-02-11T02:02:49;-2.71;84.33
66119;DHT22;52912;48.564;9.302;2023-02-11T02:05:23;-2.77;84.28
66119;DHT22;52912;48.564;9.302;2023-02-11T02:07:59;-2.91;84.87
66119;DHT22;52912;48.564;9.302;2023-02-11T02:10:27;-2.99;85.40
66119;DHT22;52912;48.564;9.302;2023-02-11T02:12:54;-3.02;86.30
66119;DHT22;52912;48.564;9.302;2023-02-11T02:15:23;-3.06;85.94
66119;DHT22;52912;48.564;9.302;2023-02-11T02:17:59;-3.09;86.10
66119;DHT22;52912;48.564;9.302;2023-02-11T02:23:41;-3.17;86.18
66119;DHT22;52912;48.564;9.302;2023-02-11T02:29:27;-3.10;85.84
66119;DHT22;52912;48.564;9.302;2023-02-11T02:35:09;-3.19;86.04
66119;DHT22;52912;48.564;9.302;2023-02-11T02:37:41;-3.12;86.39
66119;DHT22;52912;48.564;9.302;2023-02-11T02:40:14;-3.09;86.09
66119;DHT22;52912;48.564;9.302;2023-02-11T02:42:42;-3.12;86.44
66119;DHT22;52912;48.564;9.302;2023-02-11T02:45:10;-3.07;86.02
66119;DHT22;52912;48.564;9.302;2023-02-11T02:47:37;-3.10;86.06
66119;DHT22;52912;48.564;9.302;2023-02-11T02:50:03;-3.05;85.91
66119;DHT22;52912;48.564;9.302;2023-02-11T02:52:34;-3.12;86.29
66119;DHT22;52912;48.564;9.302;2023-02-11T02:55:23;-3.09;86.41
66119;DHT22;52912;48.564;9.302;2023-02-11T02:58:13;-3.06;86.79
66119;DHT22;52912;48.564;9.302;2023-02-11T03:00:49;-2.99;86.29
66119;DHT22;52912;48.564;9.302;2023-02-11T03:03:28;-3.02;86.13
66119;DHT22;52912;48.564;9.302;2023-02-11T03:06:02;-3.06;86.86
66119;DHT22;52912;48.564;9.302;2023-02-11T03:08:31;-2.98;86.33
66119;DHT22;52912;48.564;9.302;2023-02-11T03:11:00;-2.85;85.65
66119;DHT22;52912;48.564;9.302;2023-02-11T03:13:31;-2.87;85.77
66119;DHT22;52912;48.564;9.302;2023-02-11T03:15:59;-2.77;85.60
66119;DHT22;52912;48.564;9.302;2023-02-11T03:18:28;-2.75;85.72
66119;DHT22;52912;48.564;9.302;2023-02-11T03:20:55;-2.74;85.58
66119;DHT22;52912;48.564;9.302;2023-02-11T03:23:25;-2.64;85.07
66119;DHT22;52912;48.564;9.302;2023-02-11T03:25:58;-2.65;84.89
66119;DHT22;52912;48.564;9.302;2023-02-11T03:28:29;-2.70;85.17
66119;DHT22;52912;48.564;9.302;2023-02-11T03:31:05;-2.74;85.51
66119;DHT22;52912;48.564;9.302;2023-02-11T03:33:38;-2.78;85.83
66119;DHT22;52912;48.564;9.302;2023-02-11T03:36:08;-2.75;85.64
66119;DHT22;52912;48.564;9.302;2023-02-11T03:38:37;-2.70;85.82
66119;DHT22;52912;48.564;9.302;2023-02-11T03:41:08;-2.68;85.86
66119;DHT22;52912;48.564;9.302;2023-02-11T03:43:36;-2.61;85.53
66119;DHT22;52912;48.564;9.302;2023-02-11T03:46:03;-2.70;85.59
66119;DHT22;52912;48.564;9.302;2023-02-11T03:48:31;-2.67;85.79
66119;DHT22;52912;48.564;9.302;2023-02-11T03:51:02;-2.58;85.38
66119;DHT22;52912;48.564;9.302;2023-02-11T03:53:29;-2.62;85.14
66119;DHT22;52912;48.564;9.302;2023-02-11T03:55:56;-2.74;85.18
66119;DHT22;52912;48.564;9.302;2023-02-11T03:58:23;-2.71;85.38
66119;DHT22;52912;48.564;9.302;2023-02-11T04:00:49;-2.81;85.60
66119;DHT22;52912;48.564;9.302;2023-02-11T04:03:14;-2.82;85.70
66119;DHT22;52912;48.564;9.302;2023-02-11T04:05:40;-2.82;85.85
66119;DHT22;52912;48.564;9.302;2023-02-11T04:08:07;-2.84;85.90
66119;DHT22;52912;48.564;9.302;2023-02-11T04:10:32;-2.81;85.91
66119;DHT22;52912;48.564;9.302;2023-02-11T04:12:58;-2.75;86.03
66119;DHT22;52912;48.564;9.302;2023-02-11T04:15:23;-2.71;85.67
66119;DHT22;52912;48.564;9.302;2023-02-11T04:17:49;-2.71;85.59
66119;DHT22;52912;48.564;9.302;2023-02-11T04:20:15;-2.65;85.43
66119;DHT22;52912;48.564;9.302;2023-02-11T04:22:41;-2.58;85.53
66119;DHT22;52912;48.564;9.302;2023-02-11T04:25:08;-2.54;85.30
66119;DHT22;52912;48.564;9.302;2023-02-11T04:27:34;-2.51;85.77
66119;DHT22;52912;48.564;9.302;2023-02-11T04:30:00;-2.49;85.82
66119;DHT22;52912;48.564;9.302;2023-02-11T04:32:25;-2.46;85.98
66119;DHT22;52912;48.564;9.302;2023-02-11T04:34:51;-2.37;86.31
66119;DHT22;52912;48.564;9.302;2023-02-11T04:37:16;-2.26;86.37
66119;DHT22;52912;48.564;9.302;2023-02-11T04:39:42;-2.19;87.00
66119;DHT22;52912;48.564;9.302;2023-02-11T04:42:08;-2.16;87.49
66119;DHT22;52912;48.564;9.302;2023-02-11T04:44:34;-2.21;87.27
66119;DHT22;52912;48.564;9.302;2023-02-11T04:46:59;-2.25;87.59
66119;DHT22;52912;48.564;9.302;2023-02-11T04:49:25;-2.22;87.00
66119;DHT22;52912;48.564;9.302;2023-02-11T04:51:50;-2.36;86.93
66119;DHT22;52912;48.564;9.302;2023-02-11T04:54:16;-2.33;87.37
66119;DHT22;52912;48.564;9.302;2023-02-11T04:56:42;-2.26;87.07
66119;DHT22;52912;48.564;9.302;2023-02-11T04:59:09;-2.30;86.71
66119;DHT22;52912;48.564;9.302;2023-02-11T05:01:34;-2.30;86.70
66119;DHT22;52912;48.564;9.302;2023-02-11T05:04:00;-2.28;86.68
66119;DHT22;52912;48.564;9.302;2023-02-11T05:06:25;-2.29;86.72
66119;DHT22;52912;48.564;9.302;2023-02-11T05:08:51;-2.25;85.71
66119;DHT22;52912;48.564;9.302;2023-02-11T05:11:18;-2.16;85.24
66119;DHT22;52912;48.564;9.302;2023-02-11T05:13:44;-2.12;85.22
66119;DHT22;52912;48.564;9.302;2023-02-11T05:16:12;-2.10;84.76
66119;DHT22;52912;48.564;9.302;2023-02-11T05:18:38;-2.02;84.69
66119;DHT22;52912;48.564;9.302;2023-02-11T05:21:05;-2.08;84.61
66119;DHT22;52912;48.564;9.302;2023-02-11T05:23:31;-2.10;84.85
66119;DHT22;52912;48.564;9.302;2023-02-11T05:25:56;-2.10;84.94
66119;DHT22;52912;48.564;9.302;2023-02-11T05:28:22;-2.09;84.62
66119;DHT22;52912;48.564;9.302;2023-02-11T05:30:47;-2.09;85.05
66119;DHT22;52912;48.564;9.302;2023-02-11T05:33:14;-2.05;84.77
66119;DHT22;52912;48.564;9.302;2023-02-11T05:35:39;-1.97;84.64
66119;DHT22;52912;48.564;9.302;2023-02-11T05:38:05;-1.97;84.71
66119;DHT22;52912;48.564;9.302;2023-02-11T05:40:30;-2.01;85.22
66119;DHT22;52912;48.564;9.302;2023-02-11T05:42:56;-2.06;85.82
66119;DHT22;52912;48.564;9.302;2023-02-11T05:45:21;-2.06;86.06
66119;DHT22;52912;48.564;9.302;2023-02-11T05:47:47;-1.99;86.06
66119;DHT22;52912;48.564;9.302;2023-02-11T05:50:14;-2.01;85.50
66119;DHT22;52912;48.564;9.302;2023-02-11T05:52:39;-1.92;85.42
66119;DHT22;52912;48.564;9.302;2023-02-11T05:55:05;-1.92;84.98
66119;DHT22;52912;48.564;9.302;2023-02-11T05:57:30;-1.91;85.19
66119;DHT22;52912;48.564;9.302;2023-02-11T05:59:56;-1.98;85.55
66119;DHT22;52912;48.564;9.302;2023-02-11T06:02:21;-1.92;85.16
66119;DHT22;52912;48.564;9.302;2023-02-11T06:04:47;-1.85;85.09
66119;DHT22;52912;48.564;9.302;2023-02-11T06:07:14;-1.84;85.52
66119;DHT22;52912;48.564;9.302;2023-02-11T06:09:39;-1.88;86.32
66119;DHT22;52912;48.564;9.302;2023-02-11T06:12:05;-1.80;86.05
66119;DHT22;52912;48.564;9.302;2023-02-11T06:14:31;-1.80;85.56
66119;DHT22;52912;48.564;9.302;2023-02-11T06:16:56;-1.77;85.21
66119;DHT22;52912;48.564;9.302;2023-02-11T06:19:22;-1.75;85.45
66119;DHT22;52912;48.564;9.302;2023-02-11T06:21:47;-1.78;85.21
66119;DHT22;52912;48.564;9.302;2023-02-11T06:24:14;-1.75;85.65
66119;DHT22;52912;48.564;9.302;2023-02-11T06:26:40;-1.67;85.31
66119;DHT22;52912;48.564;9.302;2023-02-11T06:29:05;-1.70;85.76
66119;DHT22;52912;48.564;9.302;2023-02-11T06:31:31;-1.61;85.21
66119;DHT22;52912;48.564;9.302;2023-02-11T06:33:56;-1.57;84.75
66119;DHT22;52912;48.564;9.302;2023-02-11T06:36:22;-1.57;84.17
66119;DHT22;52912;48.564;9.302;2023-02-11T06:38:48;-1.59;84.08
66119;DHT22;52912;48.564;9.302;2023-02-11T06:41:16;-1.53;84.25
66119;DHT22;52912;48.564;9.302;2023-02-11T06:43:42;-1.52;84.20
66119;DHT22;52912;48.564;9.302;2023-02-11T06:46:08;-1.53;84.40
66119;DHT22;52912;48.564;9.302;2023-02-11T06:48:34;-1.50;84.79
66119;DHT22;52912;48.564;9.302;2023-02-11T06:51:00;-1.40;84.83
66119;DHT22;52912;48.564;9.302;2023-02-11T06:53:26;-1.39;85.46
66119;DHT22;52912;48.564;9.302;2023-02-11T06:55:51;-1.31;84.54
66119;DHT22;52912;48.564;9.302;2023-02-11T06:58:18;-1.32;84.41
66119;DHT22;52912;48.564;9.302;2023-02-11T07:00:44;-1.26;84.33
66119;DHT22;52912;48.564;9.302;2023-02-11T07:03:09;-1.22;83.85
66119;DHT22;52912;48.564;9.302;2023-02-11T07:05:35;-1.26;84.01
66119;DHT22;52912;48.564;9.302;2023-02-11T07:08:00;-1.26;84.30
66119;DHT22;52912;48.564;9.302;2023-02-11T07:10:25;-1.19;84.39
66119;DHT22;52912;48.564;9.302;2023-02-11T07:12:51;-1.13;83.99
66119;DHT22;52912;48.564;9.302;2023-02-11T07:15:18;-1.12;83.86
66119;DHT22;52912;48.564;9.302;2023-02-11T07:17:43;-1.07;83.91
66119;DHT22;52912;48.564;9.302;2023-02-11T07:20:09;-1.07;83.90
66119;DHT22;52912;48.564;9.302;2023-02-11T07:22:35;-0.99;83.73
66119;DHT22;52912;48.564;9.302;2023-02-11T07:25:01;-0.97;83.43
66119;DHT22;52912;48.564;9.302;2023-02-11T07:27:26;-0.91;83.76
66119;DHT22;52912;48.564;9.302;2023-02-11T07:29:51;-0.99;83.56
66119;DHT22;52912;48.564;9.302;2023-02-11T07:32:18;-1.01;83.86
66119;DHT22;52912;48.564;9.302;2023-02-11T07:34:44;-0.92;84.26
66119;DHT22;52912;48.564;9.302;2023-02-11T07:37:09;-0.84;84.19
66119;DHT22;52912;48.564;9.302;2023-02-11T07:39:35;-0.77;83.80
66119;DHT22;52912;48.564;9.302;2023-02-11T07:42:00;-0.70;83.48
66119;DHT22;52912;48.564;9.302;2023-02-11T07:44:25;-0.69;83.40
66119;DHT22;52912;48.564;9.302;2023-02-11T07:46:51;-0.70;83.27
66119;DHT22;52912;48.564;9.302;2023-02-11T07:49:18;-0.67;83.64
66119;DHT22;52912;48.564;9.302;2023-02-11T07:51:43;-0.77;84.03
66119;DHT22;52912;48.564;9.302;2023-02-11T07:54:09;-0.71;83.97
66119;DHT22;52912;48.564;9.302;2023-02-11T07:56:35;-0.76;83.92
66119;DHT22;52912;48.564;9.302;2023-02-11T07:59:02;-0.67;84.04
66119;DHT22;52912;48.564;9.302;2023-02-11T08:01:28;-0.56;83.81
66119;DHT22;52912;48.564;9.302;2023-02-11T08:03:55;-0.32;82.93
66119;DHT22;52912;48.564;9.302;2023-02-11T08:06:23;0.03;81.70
66119;DHT22;52912;48.564;9.302;2023-02-11T08:08:49;0.36;80.97
66119;DHT22;52912;48.564;9.302;2023-02-11T08:11:16;0.50;80.77
66119;DHT22;52912;48.564;9.302;2023-02-11T08:13:42;0.66;80.13
66119;DHT22;52912;48.564;9.302;2023-02-11T08:16:09;1.03;79.24
66119;DHT22;52912;48.564;9.302;2023-02-11T08:18:41;1.41;78.36
66119;DHT22;52912;48.564;9.302;2023-02-11T08:21:07;1.58;77.81
66119;DHT22;52912;48.564;9.302;2023-02-11T08:23:36;1.75;77.42
66119;DHT22;52912;48.564;9.302;2023-02-11T08:26:02;1.97;77.29
66119;DHT22;52912;48.564;9.302;2023-02-11T08:28:28;2.05;76.81
66119;DHT22;52912;48.564;9.302;2023-02-11T08:30:53;1.58;77.55
66119;DHT22;52912;48.564;9.302;2023-02-11T08:33:19;1.43;78.18
66119;DHT22;52912;48.564;9.302;2023-02-11T08:35:44;1.44;77.94
66119;DHT22;52912;48.564;9.302;2023-02-11T08:38:10;1.35;78.13
66119;DHT22;52912;48.564;9.302;2023-02-11T08:40:37;1.47;77.63
66119;DHT22;52912;48.564;9.302;2023-02-11T08:43:02;1.52;77.86
66119;DHT22;52912;48.564;9.302;2023-02-11T08:45:27;1.79;77.43
66119;DHT22;52912;48.564;9.302;2023-02-11T08:47:53;1.66;77.31
66119;DHT22;52912;48.564;9.302;2023-02-11T08:50:19;1.52;77.51
66119;DHT22;52912;48.564;9.302;2023-02-11T08:52:44;1.47;77.93
66119;DHT22;52912;48.564;9.302;2023-02-11T08:55:10;1.44;78.24
66119;DHT22;52912;48.564;9.302;2023-02-11T08:57:36;1.51;78.12
66119;DHT22;52912;48.564;9.302;2023-02-11T09:00:03;1.61;78.28
66119;DHT22;52912;48.564;9.302;2023-02-11T09:02:28;1.56;78.32
66119;DHT22;52912;48.564;9.302;2023-02-11T09:04:54;1.71;78.10
66119;DHT22;52912;48.564;9.302;2023-02-11T09:07:19;2.28;76.84
66119;DHT22;52912;48.564;9.302;2023-02-11T09:09:44;2.69;75.67
66119;DHT22;52912;48.564;9.302;2023-02-11T09:12:10;3.13;74.54
66119;DHT22;52912;48.564;9.302;2023-02-11T09:14:37;3.58;73.19
66119;DHT22;52912;48.564;9.302;2023-02-11T09:17:02;3.70;72.46
66119;DHT22;52912;48.564;9.302;2023-02-11T09:19:28;3.96;72.00
66119;DHT22;52912;48.564;9.302;2023-02-11T09:21:53;4.04;71.54
66119;DHT22;52912;48.564;9.302;2023-02-11T09:24:19;4.45;70.94
66119;DHT22;52912;48.564;9.302;2023-02-11T09:26:44;4.80;69.78
66119;DHT22;52912;48.564;9.302;2023-02-11T09:29:11;5.05;69.54
66119;DHT22;52912;48.564;9.302;2023-02-11T09:31:38;5.15;68.61
66119;DHT22;52912;48.564;9.302;2023-02-11T09:34:04;5.34;68.58
66119;DHT22;52912;48.564;9.302;2023-02-11T09:36:32;5.56;68.54
66119;DHT22;52912;48.564;9.302;2023-02-11T09:39:00;5.98;67.27
66119;DHT22;52912;48.564;9.302;2023-02-11T09:44:29;4.88;69.09
66119;DHT22;52912;48.564;9.302;2023-02-11T09:46:59;4.81;70.55
66119;DHT22;52912;48.564;9.302;2023-02-11T09:49:34;5.52;68.71
66119;DHT22;52912;48.564;9.302;2023-02-11T09:52:05;5.86;67.88
66119;DHT22;52912;48.564;9.302;2023-02-11T09:54:35;6.14;67.05
66119;DHT22;52912;48.564;9.302;2023-02-11T09:57:02;6.15;66.90
66119;DHT22;52912;48.564;9.302;2023-02-11T09:59:27;6.33;66.13
66119;DHT22;52912;48.564;9.302;2023-02-11T10:01:58;6.52;65.75
66119;DHT22;52912;48.564;9.302;2023-02-11T10:04:41;6.81;65.69
66119;DHT22;52912;48.564;9.302;2023-02-11T10:07:16;6.81;65.08
66119;DHT22;52912;48.564;9.302;2023-02-11T10:09:52;7.25;64.91
66119;DHT22;52912;48.564;9.302;2023-02-11T10:12:29;7.46;64.48
66119;DHT22;52912;48.564;9.302;2023-02-11T10:15:11;7.73;63.21
66119;DHT22;52912;48.564;9.302;2023-02-11T10:20:31;8.16;62.86
66119;DHT22;52912;48.564;9.302;2023-02-11T10:22:59;7.98;63.13
66119;DHT22;52912;48.564;9.302;2023-02-11T10:25:27;7.80;63.12
66119;DHT22;52912;48.564;9.302;2023-02-11T10:27:55;7.78;64.56
66119;DHT22;52912;48.564;9.302;2023-02-11T10:30:27;7.50;65.93
66119;DHT22;52912;48.564;9.302;2023-02-11T10:32:59;7.09;66.44
66119;DHT22;52912;48.564;9.302;2023-02-11T10:35:26;6.90;67.18
66119;DHT22;52912;48.564;9.302;2023-02-11T10:37:52;6.74;67.32
66119;DHT22;52912;48.564;9.302;2023-02-11T10:40:20;6.57;67.71
66119;DHT22;52912;48.564;9.302;2023-02-11T10:42:48;6.83;68.08
66119;DHT22;52912;48.564;9.302;2023-02-11T10:45:18;6.60;67.83
66119;DHT22;52912;48.564;9.302;2023-02-11T10:47:46;6.39;68.60
66119;DHT22;52912;48.564;9.302;2023-02-11T10:50:22;6.33;69.03
66119;DHT22;52912;48.564;9.302;2023-02-11T10:52:48;6.62;68.78
66119;DHT22;52912;48.564;9.302;2023-02-11T10:55:15;7.19;67.48
66119;DHT22;52912;48.564;9.302;2023-02-11T10:57:52;8.03;65.46
66119;DHT22;52912;48.564;9.302;2023-02-11T11:00:36;8.61;64.57
66119;DHT22;52912;48.564;9.302;2023-02-11T11:03:04;8.84;62.15
66119;DHT22;52912;48.564;9.302;2023-02-11T11:05:34;9.02;61.62
66119;DHT22;52912;48.564;9.302;2023-02-11T11:08:01;9.01;61.87
66119;DHT22;52912;48.564;9.302;2023-02-11T11:10:35;9.53;60.65
66119;DHT22;52912;48.564;9.302;2023-02-11T11:13:00;9.80;60.18
66119;DHT22;52912;48.564;9.302;2023-02-11T11:15:28;9.87;60.06
66119;DHT22;52912;48.564;9.302;2023-02-11T11:18:09;9.39;59.59
66119;DHT22;52912;48.564;9.302;2023-02-11T11:20:36;9.71;59.03
66119;DHT22;52912;48.564;9.302;2023-02-11T11:23:15;9.75;58.97
66119;DHT22;52912;48.564;9.302;2023-02-11T11:25:43;9.95;58.74
66119;DHT22;52912;48.564;9.302;2023-02-11T11:28:19;10.39;57.20
66119;DHT22;52912;48.564;9.302;2023-02-11T11:30:45;10.28;56.51
66119;DHT22;52912;48.564;9.302;2023-02-11T11:33:19;10.35;56.47
66119;DHT22;52912;48.564;9.302;2023-02-11T11:35:56;10.30;56.51
66119;DHT22;52912;48.564;9.302;2023-02-11T11:38:22;10.43;56.81
66119;DHT22;52912;48.564;9.302;2023-02-11T11:41:22;10.61;55.73
66119;DHT22;52912;48.564;9.302;2023-02-11T11:43:58;10.47;55.90
66119;DHT22;52912;48.564;9.302;2023-02-11T11:46:27;10.75;55.59
66119;DHT22;52912;48.564;9.302;2023-02-11T11:48:57;10.98;55.84
66119;DHT22;52912;48.564;9.302;2023-02-11T11:51:27;11.37;55.43
66119;DHT22;52912;48.564;9.302;2023-02-11T11:53:57;11.53;55.09
66119;DHT22;52912;48.564;9.302;2023-02-11T11:56:26;11.68;54.25
66119;DHT22;52912;48.564;9.302;2023-02-11T11:58:51;11.79;53.83
66119;DHT22;52912;48.564;9.302;2023-02-11T12:01:27;12.09;53.68
66119;DHT22;52912;48.564;9.302;2023-02-11T12:04:20;12.12;52.89
66119;DHT22;52912;48.564;9.302;2023-02-11T12:07:01;12.13;53.44
66119;DHT22;52912;48.564;9.302;2023-02-11T12:09:35;12.49;53.37
66119;DHT22;52912;48.564;9.302;2023-02-11T12:12:24;12.34;53.03
66119;DHT22;52912;48.564;9.302;2023-02-11T12:15:00;12.13;53.26
66119;DHT22;52912;48.564;9.302;2023-02-11T12:17:40;12.43;52.42
66119;DHT22;52912;48.564;9.302;2023-02-11T12:20:31;12.65;52.43
66119;DHT22;52912;48.564;9.302;2023-02-11T12:23:10;12.53;51.96
66119;DHT22;52912;48.564;9.302;2023-02-11T12:25:42;12.85;53.02
66119;DHT22;52912;48.564;9.302;2023-02-11T12:28:24;12.92;52.22
66119;DHT22;52912;48.564;9.302;2023-02-11T12:31:05;13.19;51.83
66119;DHT22;52912;48.564;9.302;2023-02-11T12:33:48;13.12;52.24
66119;DHT22;52912;48.564;9.302;2023-02-11T12:36:26;12.28;52.75
66119;DHT22;52912;48.564;9.302;2023-02-11T12:39:10;12.53;52.82
66119;DHT22;52912;48.564;9.302;2023-02-11T12:41:49;12.32;53.13
66119;DHT22;52912;48.564;9.302;2023-02-11T12:44:25;12.12;53.75
66119;DHT22;52912;48.564;9.302;2023-02-11T12:47:00;11.30;54.19
66119;DHT22;52912;48.564;9.302;2023-02-11T12:49:56;10.94;56.82
66119;DHT22;52912;48.564;9.302;2023-02-11T12:52:39;10.94;56.71
66119;DHT22;52912;48.564;9.302;2023-02-11T12:55:18;10.61;57.99
66119;DHT22;52912;48.564;9.302;2023-02-11T12:57:45;10.84;57.04
66119;DHT22;52912;48.564;9.302;2023-02-11T13:00:15;11.11;56.22
66119;DHT22;52912;48.564;9.302;2023-02-11T13:02:41;11.11;56.07
66119;DHT22;52912;48.564;9.302;2023-02-11T13:05:21;11.19;56.55
66119;DHT22;52912;48.564;9.302;2023-02-11T13:07:49;11.08;56.47
66119;DHT22;52912;48.564;9.302;2023-02-11T13:10:24;11.50;55.75
66119;DHT22;52912;48.564;9.302;2023-02-11T13:12:51;11.43;55.84
66119;DHT22;52912;48.564;9.302;2023-02-11T13:15:18;11.32;55.30
66119;DHT22;52912;48.564;9.302;2023-02-11T13:17:51;11.42;56.08
66119;DHT22;52912;48.564;9.302;2023-02-11T13:20:31;11.26;56.37
66119;DHT22;52912;48.564;9.302;2023-02-11T13:23:04;10.80;57.05
66119;DHT22;52912;48.564;9.302;2023-02-11T13:25:38;10.52;57.32
66119;DHT22;52912;48.564;9.302;2023-02-11T13:28:16;10.85;57.30
66119;DHT22;52912;48.564;9.302;2023-02-11T13:30:44;10.91;57.28
66119;DHT22;52912;48.564;9.302;2023-02-11T13:33:19;10.71;58.00
66119;DHT22;52912;48.564;9.302;2023-02-11T13:35:48;10.57;58.44
66119;DHT22;52912;48.564;9.302;2023-02-11T13:38:34;10.77;57.05
66119;DHT22;52912;48.564;9.302;2023-02-11T13:41:03;10.80;56.90
66119;DHT22;52912;48.564;9.302;2023-02-11T13:43:31;11.29;55.90
66119;DHT22;52912;48.564;9.302;2023-02-11T13:45:58;11.29;55.66
66119;DHT22;52912;48.564;9.302;2023-02-11T13:48:26;11.78;54.62
66119;DHT22;52912;48.564;9.302;2023-02-11T13:50:55;11.78;54.58
66119;DHT22;52912;48.564;9.302;2023-02-11T13:53:22;11.96;54.44
66119;DHT22;52912;48.564;9.302;2023-02-11T13:55:51;11.88;53.83
66119;DHT22;52912;48.564;9.302;2023-02-11T13:58:34;11.12;56.40
66119;DHT22;52912;48.564;9.302;2023-02-11T14:00:59;10.70;57.28
66119;DHT22;52912;48.564;9.302;2023-02-11T14:03:27;10.36;58.06
66119;DHT22;52912;48.564;9.302;2023-02-11T14:06:12;11.26;56.60
66119;DHT22;52912;48.564;9.302;2023-02-11T14:08:58;11.73;55.70
66119;DHT22;52912;48.564;9.302;2023-02-11T14:11:45;11.63;55.65
66119;DHT22;52912;48.564;9.302;2023-02-11T14:14:23;11.84;55.03
66119;DHT22;52912;48.564;9.302;2023-02-11T14:19:47;11.74;55.86
66119;DHT22;52912;48.564;9.302;2023-02-11T14:22:15;10.89;57.97
66119;DHT22;52912;48.564;9.302;2023-02-11T14:24:50;10.54;58.76
66119;DHT22;52912;48.564;9.302;2023-02-11T14:27:21;10.50;59.09
66119;DHT22;52912;48.564;9.302;2023-02-11T14:29:59;10.68;58.78
66119;DHT22;52912;48.564;9.302;2023-02-11T14:32:37;11.04;57.85
66119;DHT22;52912;48.564;9.302;2023-02-11T14:35:09;11.06;57.46
66119;DHT22;52912;48.564;9.302;2023-02-11T14:37:42;11.63;56.65
66119;DHT22;52912;48.564;9.302;2023-02-11T14:40:17;11.34;56.61
66119;DHT22;52912;48.564;9.302;2023-02-11T14:42:46;10.97;57.51
66119;DHT22;52912;48.564;9.302;2023-02-11T14:45:19;11.23;57.15
66119;DHT22;52912;48.564;9.302;2023-02-11T14:47:48;11.06;57.25
66119;DHT22;52912;48.564;9.302;2023-02-11T14:50:20;11.01;57.60
66119;DHT22;52912;48.564;9.302;2023-02-11T14:52:47;10.39;58.64
66119;DHT22;52912;48.564;9.302;2023-02-11T14:55:18;10.61;58.27
66119;DHT22;52912;48.564;9.302;2023-02-11T14:58:04;10.67;57.96
66119;DHT22;52912;48.564;9.302;2023-02-11T15:00:31;10.71;57.95
66119;DHT22;52912;48.564;9.302;2023-02-11T15:02:56;10.65;58.33
66119;DHT22;52912;48.564;9.302;2023-02-11T15:05:24;10.25;58.85
66119;DHT22;52912;48.564;9.302;2023-02-11T15:07:52;9.98;59.62
66119;DHT22;52912;48.564;9.302;2023-02-11T15:10:25;9.88;60.40
66119;DHT22;52912;48.564;9.302;2023-02-11T15:12:52;9.98;59.93
66119;DHT22;52912;48.564;9.302;2023-02-11T15:15:18;10.10;60.04
66119;DHT22;52912;48.564;9.302;2023-02-11T15:17:45;10.13;59.95
66119;DHT22;52912;48.564;9.302;2023-02-11T15:20:18;10.03;60.36
66119;DHT22;52912;48.564;9.302;2023-02-11T15:22:45;10.10;60.37
66119;DHT22;52912;48.564;9.302;2023-02-11T15:25:15;9.94;60.33
66119;DHT22;52912;48.564;9.302;2023-02-11T15:27:41;9.73;61.41
66119;DHT22;52912;48.564;9.302;2023-02-11T15:30:22;9.73;61.30
66119;DHT22;52912;48.564;9.302;2023-02-11T15:32:51;9.95;61.08
66119;DHT22;52912;48.564;9.302;2023-02-11T15:35:17;9.97;60.92
66119;DHT22;52912;48.564;9.302;2023-02-11T15:37:43;9.65;61.24
66119;DHT22;52912;48.564;9.302;2023-02-11T15:40:10;9.47;62.08
66119;DHT22;52912;48.564;9.302;2023-02-11T15:42:36;9.44;62.32
66119;DHT22;52912;48.564;9.302;2023-02-11T15:45:10;9.50;62.38
66119;DHT22;52912;48.564;9.302;2023-02-11T15:47:49;9.42;62.82
66119;DHT22;52912;48.564;9.302;2023-02-11T15:50:19;9.42;63.04
66119;DHT22;52912;48.564;9.302;2023-02-11T15:52:46;9.16;63.65
66119;DHT22;52912;48.564;9.302;2023-02-11T15:55:12;9.05;64.07
66119;DHT22;52912;48.564;9.302;2023-02-11T15:57:40;9.05;64.13
66119;DHT22;52912;48.564;9.302;2023-02-11T16:00:14;8.92;64.54
66119;DHT22;52912;48.564;9.302;2023-02-11T16:02:43;8.85;64.92
66119;DHT22;52912;48.564;9.302;2023-02-11T16:05:24;8.75;65.31
66119;DHT22;52912;48.564;9.302;2023-02-11T16:07:50;8.67;65.74